Time,TemperatureF,DewpointF,PressureIn,WindDirection,WindDirectionDegrees,WindSpeedMPH,WindSpeedGustMPH,Humidity,HourlyPrecipIn,Conditions,Clouds,dailyrainin,SolarRadiationWatts/m^2,SoftwareType,DateUTC
2013-12-24 00:04:00,50.4,35.3,30.19,NNW,337,1.0,4.0,56,0.00,,,0.00,0,HR-IXPWINDi_r2_v1.2.,2013-12-24 08:04:00,
2013-12-24 00:09:00,50.3,35.2,30.19,NNW,345,2.0,3.0,56,0.00,,,0.00,0,HR-IXPWINDi_r2_v1.2.,2013-12-24 08:09:00,
2013-12-24 00:14:00,50.6,35.4,30.19,NNW,344,3.0,3.0,56,0.00,,,0.00,0,HR-IXPWINDi_r2_v1.2.,2013-12-24 08:14:00,
2013-12-24 00:19:00,50.4,35.3,30.19,North,9,0.0,3.0,56,0.00,,,0.00,0,HR-IXPWINDi_r2_v1.2.,2013-12-24 08:19:00,
2013-12-24 00:24:00,49.5,35.3,30.19,North,9,1.0,3.0,58,0.00,,,0.00,0,HR-IXPWINDi_r2_v1.2.,2013-12-24 08:24:00,
2013-12-24 00:30:00,49.4,35.2,30.18,WNW,297,1.0,3.0,58,0.00,,,0.00,0,HR-IXPWINDi_r2_v1.2.,2013-12-24 08:30:00,
2013-12-24 00:35:00,49.1,35.8,30.18,WNW,298,2.0,3.0,60,0.00,,,0.00,0,HR-IXPWINDi_r2_v1.2.,2013-12-24 08:35:00,
2013-12-24 00:40:00,48.8,35.5,30.18,NNE,13,1.0,3.0,60,0.00,,,0.00,0,HR-IXPWINDi_r2_v1.2.,2013-12-24 08:40:00,
2013-12-24 00:45:00,49.5,35.7,30.18,WNW,289,3.0,4.0,59,0.00,,,0.00,0,HR-IXPWINDi_r2_v1.2.,2013-12-24 08:45:00,
2013-12-24 00:50:00,49.9,35.7,30.19,NW,305,0.0,4.0,58,0.00,,,0.00,0,HR-IXPWINDi_r2_v1.2.,2013-12-24 08:50:00,
2013-12-24 00:55:00,51.1,35.5,30.19,NW,309,0.0,3.0,55,0.00,,,0.00,0,HR-IXPWINDi_r2_v1.2.,2013-12-24 08:55:00,
2013-12-24 01:00:00,51.4,35.3,30.19,NNW,346,2.0,4.0,54,0.00,,,0.00,0,HR-IXPWINDi_r2_v1.2.,2013-12-24 09:00:00,
2013-12-24 01:05:00,51.6,35.5,30.19,WNW,302,2.0,4.0,54,0.00,,,0.00,0,HR-IXPWINDi_r2_v1.2.,2013-12-24 09:05:00,
2013-12-24 01:10:00,51.5,35.4,30.19,NW,311,2.0,4.0,54,0.00,,,0.00,0,HR-IXPWINDi_r2_v1.2.,2013-12-24 09:10:00,
2013-12-24 01:16:00,51.8,35.2,30.19,NW,319,2.0,5.0,53,0.00,,,0.00,0,HR-IXPWINDi_r2_v1.2.,2013-12-24 09:16:00,
2013-12-24 01:21:00,51.5,35.4,30.18,NW,315,2.0,5.0,54,0.00,,,0.00,0,HR-IXPWINDi_r2_v1.2.,2013-12-24 09:21:00,
2013-12-24 01:26:00,51.8,35.2,30.18,NW,316,1.0,5.0,53,0.00,,,0.00,0,HR-IXPWINDi_r2_v1.2.,2013-12-24 09:26:00,
2013-12-24 01:31:00,51.8,35.2,30.18,WNW,294,1.0,5.0,53,0.00,,,0.00,0,HR-IXPWINDi_r2_v1.2.,2013-12-24 09:31:00,
2013-12-24 01:36:00,51.6,35.0,30.18,NW,312,4.0,5.0,53,0.00,,,0.00,0,HR-IXPWINDi_r2_v1.2.,2013-12-24 09:36:00,
2013-12-24 01:41:00,51.5,34.9,30.18,NW,323,3.0,5.0,53,0.00,,,0.00,0,HR-IXPWINDi_r2_v1.2.,2013-12-24 09:41:00,
2013-12-24 01:47:00,50.6,35.0,30.18,NW,319,0.0,5.0,55,0.00,,,0.00,0,HR-IXPWINDi_r2_v1.2.,2013-12-24 09:47:00,
2013-12-24 01:52:00,49.4,34.8,30.18,NNW,334,2.0,4.0,57,0.00,,,0.00,0,HR-IXPWINDi_r2_v1.2.,2013-12-24 09:52:00,
2013-12-24 01:57:00,48.6,34.9,30.18,NNW,348,1.0,3.0,59,0.00,,,0.00,0,HR-IXPWINDi_r2_v1.2.,2013-12-24 09:57:00,
2013-12-24 02:02:00,49.2,35.0,30.18,WNW,302,2.0,4.0,58,0.00,,,0.00,0,HR-IXPWINDi_r2_v1.2.,2013-12-24 10:02:00,
2013-12-24 02:07:00,49.7,35.1,30.18,NW,317,1.0,4.0,57,0.00,,,0.00,0,HR-IXPWINDi_r2_v1.2.,2013-12-24 10:07:00,
2013-12-24 02:12:00,49.5,34.9,30.18,NW,309,2.0,4.0,57,0.00,,,0.00,0,HR-IXPWINDi_r2_v1.2.,2013-12-24 10:12:00,
2013-12-24 02:17:00,49.7,34.6,30.18,NNW,348,3.0,4.0,56,0.00,,,0.00,0,HR-IXPWINDi_r2_v1.2.,2013-12-24 10:17:00,
2013-12-24 02:22:00,49.8,35.1,30.18,NNW,333,2.0,4.0,57,0.00,,,0.00,0,HR-IXPWINDi_r2_v1.2.,2013-12-24 10:22:00,
2013-12-24 02:28:00,49.9,34.8,30.18,NW,316,4.0,6.0,56,0.00,,,0.00,0,HR-IXPWINDi_r2_v1.2.,2013-12-24 10:28:00,
2013-12-24 02:33:00,50.4,34.8,30.18,NW,315,1.0,6.0,55,0.00,,,0.00,0,HR-IXPWINDi_r2_v1.2.,2013-12-24 10:33:00,
2013-12-24 02:38:00,50.3,34.7,30.18,WNW,296,2.0,5.0,55,0.00,,,0.00,0,HR-IXPWINDi_r2_v1.2.,2013-12-24 10:38:00,
2013-12-24 02:43:00,50.3,34.7,30.18,NNW,334,0.0,5.0,55,0.00,,,0.00,0,HR-IXPWINDi_r2_v1.2.,2013-12-24 10:43:00,
2013-12-24 02:48:00,49.3,34.2,30.18,NNW,337,1.0,4.0,56,0.00,,,0.00,0,HR-IXPWINDi_r2_v1.2.,2013-12-24 10:48:00,
2013-12-24 02:53:00,49.1,34.5,30.18,NNW,331,3.0,3.0,57,0.00,,,0.00,0,HR-IXPWINDi_r2_v1.2.,2013-12-24 10:53:00,
2013-12-24 02:58:00,49.2,34.6,30.18,NW,321,3.0,3.0,57,0.00,,,0.00,0,HR-IXPWINDi_r2_v1.2.,2013-12-24 10:58:00,
2013-12-24 03:04:00,49.8,34.7,30.17,NW,306,2.0,4.0,56,0.00,,,0.00,0,HR-IXPWINDi_r2_v1.2.,2013-12-24 11:04:00,
2013-12-24 03:09:00,50.0,34.4,30.17,WNW,302,2.0,4.0,55,0.00,,,0.00,0,HR-IXPWINDi_r2_v1.2.,2013-12-24 11:09:00,
2013-12-24 03:14:00,50.2,34.6,30.17,NNW,327,2.0,4.0,55,0.00,,,0.00,0,HR-IXPWINDi_r2_v1.2.,2013-12-24 11:14:00,
2013-12-24 03:19:00,50.3,34.3,30.17,WNW,302,4.0,6.0,54,0.00,,,0.00,0,HR-IXPWINDi_r2_v1.2.,2013-12-24 11:19:00,
2013-12-24 03:24:00,50.4,34.3,30.17,NW,311,2.0,7.0,54,0.00,,,0.00,0,HR-IXPWINDi_r2_v1.2.,2013-12-24 11:24:00,
2013-12-24 03:29:00,50.0,34.4,30.17,NW,319,1.0,7.0,55,0.00,,,0.00,0,HR-IXPWINDi_r2_v1.2.,2013-12-24 11:29:00,
2013-12-24 03:34:00,49.5,34.0,30.16,NW,306,1.0,5.0,55,0.00,,,0.00,0,HR-IXPWINDi_r2_v1.2.,2013-12-24 11:34:00,
2013-12-24 03:40:00,48.9,34.3,30.17,WNW,299,3.0,3.0,57,0.00,,,0.00,0,HR-IXPWINDi_r2_v1.2.,2013-12-24 11:40:00,
2013-12-24 03:45:00,49.0,34.0,30.16,NNW,333,0.0,4.0,56,0.00,,,0.00,0,HR-IXPWINDi_r2_v1.2.,2013-12-24 11:45:00,
2013-12-24 03:50:00,49.2,34.1,30.16,WNW,292,4.0,4.0,56,0.00,,,0.00,0,HR-IXPWINDi_r2_v1.2.,2013-12-24 11:50:00,
2013-12-24 03:55:00,49.9,33.9,30.16,WNW,295,2.0,4.0,54,0.00,,,0.00,0,HR-IXPWINDi_r2_v1.2.,2013-12-24 11:55:00,
2013-12-24 04:01:00,50.1,34.1,30.16,WNW,300,1.0,4.0,54,0.00,,,0.00,0,HR-IXPWINDi_r2_v1.2.,2013-12-24 12:01:00,
2013-12-24 04:06:00,50.1,34.1,30.17,NNW,327,1.0,4.0,54,0.00,,,0.00,0,HR-IXPWINDi_r2_v1.2.,2013-12-24 12:06:00,
2013-12-24 04:11:00,49.2,34.1,30.16,NNW,331,2.0,4.0,56,0.00,,,0.00,0,HR-IXPWINDi_r2_v1.2.,2013-12-24 12:11:00,
2013-12-24 04:16:00,48.5,34.4,30.16,NW,317,1.0,4.0,58,0.00,,,0.00,0,HR-IXPWINDi_r2_v1.2.,2013-12-24 12:16:00,
2013-12-24 04:21:00,48.8,34.2,30.16,NW,304,3.0,5.0,57,0.00,,,0.00,0,HR-IXPWINDi_r2_v1.2.,2013-12-24 12:21:00,
2013-12-24 04:26:00,49.6,34.1,30.16,NW,325,2.0,5.0,55,0.00,,,0.00,0,HR-IXPWINDi_r2_v1.2.,2013-12-24 12:26:00,
2013-12-24 04:31:00,50.0,34.0,30.16,WNW,298,1.0,5.0,54,0.00,,,0.00,0,HR-IXPWINDi_r2_v1.2.,2013-12-24 12:31:00,
2013-12-24 04:36:00,49.9,34.3,30.16,NW,326,2.0,4.0,55,0.00,,,0.00,0,HR-IXPWINDi_r2_v1.2.,2013-12-24 12:36:00,
2013-12-24 04:41:00,49.7,34.2,30.16,North,360,2.0,4.0,55,0.00,,,0.00,0,HR-IXPWINDi_r2_v1.2.,2013-12-24 12:41:00,
2013-12-24 04:46:00,49.8,34.2,30.16,NW,314,1.0,5.0,55,0.00,,,0.00,0,HR-IXPWINDi_r2_v1.2.,2013-12-24 12:46:00,
2013-12-24 04:52:00,49.8,33.8,30.16,NW,309,3.0,5.0,54,0.00,,,0.00,0,HR-IXPWINDi_r2_v1.2.,2013-12-24 12:52:00,
2013-12-24 04:57:00,50.1,34.1,30.16,WNW,296,3.0,5.0,54,0.00,,,0.00,0,HR-IXPWINDi_r2_v1.2.,2013-12-24 12:57:00,
2013-12-24 05:02:00,50.3,33.8,30.16,NW,308,2.0,5.0,53,0.00,,,0.00,0,HR-IXPWINDi_r2_v1.2.,2013-12-24 13:02:00,
2013-12-24 05:07:00,50.4,33.9,30.16,WNW,299,3.0,7.0,53,0.00,,,0.00,0,HR-IXPWINDi_r2_v1.2.,2013-12-24 13:07:00,
2013-12-24 05:12:00,50.2,33.7,30.16,NW,304,2.0,7.0,53,0.00,,,0.00,0,HR-IXPWINDi_r2_v1.2.,2013-12-24 13:12:00,
2013-12-24 05:18:00,50.1,33.6,30.16,WNW,302,1.0,4.0,53,0.00,,,0.00,0,HR-IXPWINDi_r2_v1.2.,2013-12-24 13:18:00,
2013-12-24 05:23:00,49.8,33.8,30.16,WNW,296,2.0,4.0,54,0.00,,,0.00,0,HR-IXPWINDi_r2_v1.2.,2013-12-24 13:23:00,
2013-12-24 05:28:00,49.5,33.5,30.16,NW,304,2.0,3.0,54,0.00,,,0.00,0,HR-IXPWINDi_r2_v1.2.,2013-12-24 13:28:00,
2013-12-24 05:33:00,49.5,33.5,30.16,NW,305,2.0,4.0,54,0.00,,,0.00,0,HR-IXPWINDi_r2_v1.2.,2013-12-24 13:33:00,
2013-12-24 05:39:00,49.6,33.6,30.16,WNW,302,2.0,4.0,54,0.00,,,0.00,0,HR-IXPWINDi_r2_v1.2.,2013-12-24 13:39:00,
2013-12-24 05:44:00,49.7,33.7,30.16,WNW,297,2.0,5.0,54,0.00,,,0.00,0,HR-IXPWINDi_r2_v1.2.,2013-12-24 13:44:00,
2013-12-24 05:49:00,49.7,33.2,30.17,NW,315,2.0,5.0,53,0.00,,,0.00,0,HR-IXPWINDi_r2_v1.2.,2013-12-24 13:49:00,
2013-12-24 05:54:00,49.7,33.2,30.16,WNW,291,1.0,4.0,53,0.00,,,0.00,0,HR-IXPWINDi_r2_v1.2.,2013-12-24 13:54:00,
2013-12-24 05:59:00,49.3,33.3,30.17,NW,325,1.0,4.0,54,0.00,,,0.00,0,HR-IXPWINDi_r2_v1.2.,2013-12-24 13:59:00,
2013-12-24 06:04:00,49.1,33.6,30.17,NW,304,0.0,3.0,55,0.00,,,0.00,0,HR-IXPWINDi_r2_v1.2.,2013-12-24 14:04:00,
2013-12-24 06:09:00,48.5,33.5,30.17,NW,305,1.0,3.0,56,0.00,,,0.00,0,HR-IXPWINDi_r2_v1.2.,2013-12-24 14:09:00,
2013-12-24 06:15:00,47.6,33.9,30.17,NW,305,2.0,2.0,59,0.00,,,0.00,0,HR-IXPWINDi_r2_v1.2.,2013-12-24 14:15:00,
2013-12-24 06:20:00,47.4,33.3,30.17,WNW,302,2.0,5.0,58,0.00,,,0.00,0,HR-IXPWINDi_r2_v1.2.,2013-12-24 14:20:00,
2013-12-24 06:25:00,47.9,33.4,30.17,WNW,298,2.0,5.0,57,0.00,,,0.00,0,HR-IXPWINDi_r2_v1.2.,2013-12-24 14:25:00,
2013-12-24 06:30:00,47.8,33.3,30.17,WNW,292,0.0,4.0,57,0.00,,,0.00,0,HR-IXPWINDi_r2_v1.2.,2013-12-24 14:30:00,
2013-12-24 06:36:00,47.3,33.7,30.17,WNW,298,3.0,4.0,59,0.00,,,0.00,0,HR-IXPWINDi_r2_v1.2.,2013-12-24 14:36:00,
2013-12-24 06:41:00,47.7,33.2,30.17,NW,310,1.0,4.0,57,0.00,,,0.00,0,HR-IXPWINDi_r2_v1.2.,2013-12-24 14:41:00,
2013-12-24 06:46:00,47.8,33.3,30.17,WNW,297,2.0,4.0,57,0.00,,,0.00,0,HR-IXPWINDi_r2_v1.2.,2013-12-24 14:46:00,
2013-12-24 06:51:00,46.7,33.5,30.17,WNW,297,1.0,4.0,60,0.00,,,0.00,0,HR-IXPWINDi_r2_v1.2.,2013-12-24 14:51:00,
2013-12-24 06:56:00,46.0,33.3,30.17,WNW,297,0.0,2.0,61,0.00,,,0.00,0,HR-IXPWINDi_r2_v1.2.,2013-12-24 14:56:00,
2013-12-24 07:02:00,46.2,33.5,30.17,WNW,288,1.0,4.0,61,0.00,,,0.00,0,HR-IXPWINDi_r2_v1.2.,2013-12-24 15:02:00,
2013-12-24 07:07:00,46.9,33.3,30.17,NW,306,2.0,4.0,59,0.00,,,0.00,5,HR-IXPWINDi_r2_v1.2.,2013-12-24 15:07:00,
2013-12-24 07:12:00,47.4,33.3,30.17,NW,304,3.0,4.0,58,0.00,,,0.00,7,HR-IXPWINDi_r2_v1.2.,2013-12-24 15:12:00,
2013-12-24 07:17:00,47.9,33.4,30.17,NW,314,1.0,4.0,57,0.00,,,0.00,9,HR-IXPWINDi_r2_v1.2.,2013-12-24 15:17:00,
2013-12-24 07:22:00,47.9,33.4,30.17,NW,311,1.0,3.0,57,0.00,,,0.00,16,HR-IXPWINDi_r2_v1.2.,2013-12-24 15:22:00,
2013-12-24 07:28:00,48.1,33.1,30.17,NW,319,1.0,3.0,56,0.00,,,0.00,23,HR-IXPWINDi_r2_v1.2.,2013-12-24 15:28:00,
2013-12-24 07:33:00,47.7,34.0,30.18,NNW,329,2.0,3.0,59,0.00,,,0.00,26,HR-IXPWINDi_r2_v1.2.,2013-12-24 15:33:00,
2013-12-24 07:38:00,48.3,34.2,30.17,NW,305,0.0,3.0,58,0.00,,,0.00,26,HR-IXPWINDi_r2_v1.2.,2013-12-24 15:38:00,
2013-12-24 07:43:00,49.1,34.0,30.18,NW,318,1.0,3.0,56,0.00,,,0.00,28,HR-IXPWINDi_r2_v1.2.,2013-12-24 15:43:00,
2013-12-24 07:48:00,50.0,34.0,30.17,NNW,333,1.0,4.0,54,0.00,,,0.00,30,HR-IXPWINDi_r2_v1.2.,2013-12-24 15:48:00,
2013-12-24 07:54:00,50.9,34.8,30.17,NNW,329,2.0,4.0,54,0.00,,,0.00,32,HR-IXPWINDi_r2_v1.2.,2013-12-24 15:54:00,
2013-12-24 07:59:00,51.4,35.7,30.18,NNW,346,1.0,3.0,55,0.00,,,0.00,33,HR-IXPWINDi_r2_v1.2.,2013-12-24 15:59:00,
2013-12-24 08:04:00,51.9,34.8,30.18,NW,319,3.0,4.0,52,0.00,,,0.00,33,HR-IXPWINDi_r2_v1.2.,2013-12-24 16:04:00,
2013-12-24 08:09:00,52.8,34.6,30.18,WNW,296,0.0,4.0,50,0.00,,,0.00,35,HR-IXPWINDi_r2_v1.2.,2013-12-24 16:09:00,
2013-12-24 08:14:00,53.7,35.5,30.18,NNW,329,1.0,3.0,50,0.00,,,0.00,35,HR-IXPWINDi_r2_v1.2.,2013-12-24 16:14:00,
2013-12-24 08:19:00,54.5,35.2,30.18,NW,315,2.0,4.0,48,0.00,,,0.00,37,HR-IXPWINDi_r2_v1.2.,2013-12-24 16:19:00,
2013-12-24 08:24:00,55.4,36.0,30.18,NW,317,2.0,4.0,48,0.00,,,0.00,37,HR-IXPWINDi_r2_v1.2.,2013-12-24 16:24:00,
2013-12-24 08:29:00,55.7,36.8,30.18,NW,321,0.0,2.0,49,0.00,,,0.00,39,HR-IXPWINDi_r2_v1.2.,2013-12-24 16:29:00,
2013-12-24 08:34:00,56.2,36.7,30.18,NW,308,2.0,3.0,48,0.00,,,0.00,39,HR-IXPWINDi_r2_v1.2.,2013-12-24 16:34:00,
2013-12-24 08:39:00,56.9,37.4,30.18,NW,317,2.0,3.0,48,0.00,,,0.00,39,HR-IXPWINDi_r2_v1.2.,2013-12-24 16:39:00,
2013-12-24 08:44:00,57.6,36.9,30.18,NW,325,0.0,3.0,46,0.00,,,0.00,39,HR-IXPWINDi_r2_v1.2.,2013-12-24 16:44:00,
2013-12-24 08:49:00,58.4,39.8,30.18,NW,325,0.0,2.0,50,0.00,,,0.00,40,HR-IXPWINDi_r2_v1.2.,2013-12-24 16:49:00,
2013-12-24 08:54:00,59.3,38.5,30.18,NW,325,0.0,2.0,46,0.00,,,0.00,40,HR-IXPWINDi_r2_v1.2.,2013-12-24 16:54:00,
2013-12-24 09:00:00,59.6,38.8,30.18,NW,325,0.0,2.0,46,0.00,,,0.00,40,HR-IXPWINDi_r2_v1.2.,2013-12-24 17:00:00,
2013-12-24 09:05:00,60.4,38.4,30.18,NW,325,0.0,2.0,44,0.00,,,0.00,40,HR-IXPWINDi_r2_v1.2.,2013-12-24 17:05:00,
2013-12-24 09:10:00,61.6,38.9,30.18,NW,325,0.0,1.0,43,0.00,,,0.00,40,HR-IXPWINDi_r2_v1.2.,2013-12-24 17:10:00,
2013-12-24 09:15:00,62.6,38.5,30.18,NW,325,0.0,1.0,41,0.00,,,0.00,40,HR-IXPWINDi_r2_v1.2.,2013-12-24 17:15:00,
2013-12-24 09:20:00,63.3,40.4,30.18,NW,325,1.0,1.0,43,0.00,,,0.00,40,HR-IXPWINDi_r2_v1.2.,2013-12-24 17:20:00,
2013-12-24 09:26:00,63.5,37.4,30.18,NW,325,0.0,1.0,38,0.00,,,0.00,40,HR-IXPWINDi_r2_v1.2.,2013-12-24 17:26:00,
2013-12-24 09:31:00,64.1,39.3,30.18,NW,325,0.0,2.0,40,0.00,,,0.00,40,HR-IXPWINDi_r2_v1.2.,2013-12-24 17:31:00,
2013-12-24 09:36:00,64.7,39.1,30.18,NW,325,0.0,2.0,39,0.00,,,0.00,42,HR-IXPWINDi_r2_v1.2.,2013-12-24 17:36:00,
2013-12-24 09:41:00,65.2,38.2,30.18,NW,325,0.0,2.0,37,0.00,,,0.00,40,HR-IXPWINDi_r2_v1.2.,2013-12-24 17:41:00,
2013-12-24 09:46:00,66.1,36.1,30.18,NW,325,0.0,2.0,33,0.00,,,0.00,40,HR-IXPWINDi_r2_v1.2.,2013-12-24 17:46:00,
2013-12-24 09:51:00,66.6,38.8,30.18,East,90,1.0,2.0,36,0.00,,,0.00,40,HR-IXPWINDi_r2_v1.2.,2013-12-24 17:51:00,
2013-12-24 09:57:00,66.7,37.4,30.17,East,90,0.0,2.0,34,0.00,,,0.00,40,HR-IXPWINDi_r2_v1.2.,2013-12-24 17:57:00,
2013-12-24 10:02:00,67.6,35.9,30.17,NW,317,1.0,2.0,31,0.00,,,0.00,40,HR-IXPWINDi_r2_v1.2.,2013-12-24 18:02:00,
2013-12-24 10:07:00,68.8,36.9,30.17,NW,307,1.0,3.0,31,0.00,,,0.00,42,HR-IXPWINDi_r2_v1.2.,2013-12-24 18:07:00,
2013-12-24 10:12:00,69.6,36.8,30.17,NW,308,1.0,3.0,30,0.00,,,0.00,42,HR-IXPWINDi_r2_v1.2.,2013-12-24 18:12:00,
2013-12-24 10:17:00,69.6,37.6,30.17,NW,308,1.0,3.0,31,0.00,,,0.00,42,HR-IXPWINDi_r2_v1.2.,2013-12-24 18:17:00,
2013-12-24 10:22:00,70.6,37.6,30.17,SSW,197,2.0,2.0,30,0.00,,,0.00,53,HR-IXPWINDi_r2_v1.2.,2013-12-24 18:22:00,
2013-12-24 10:27:00,71.6,37.6,30.16,SW,229,0.0,3.0,29,0.00,,,0.00,199,HR-IXPWINDi_r2_v1.2.,2013-12-24 18:27:00,
2013-12-24 10:32:00,71.7,38.6,30.16,East,84,2.0,3.0,30,0.00,,,0.00,297,HR-IXPWINDi_r2_v1.2.,2013-12-24 18:32:00,
2013-12-24 10:38:00,72.9,38.8,30.16,North,5,3.0,4.0,29,0.00,,,0.00,462,HR-IXPWINDi_r2_v1.2.,2013-12-24 18:38:00,
2013-12-24 10:43:00,73.7,39.4,30.16,North,5,2.0,4.0,29,0.00,,,0.00,452,HR-IXPWINDi_r2_v1.2.,2013-12-24 18:43:00,
2013-12-24 10:48:00,74.8,39.5,30.15,WNW,287,3.0,5.0,28,0.00,,,0.00,432,HR-IXPWINDi_r2_v1.2.,2013-12-24 18:48:00,
2013-12-24 10:53:00,76.0,39.6,30.15,WSW,246,0.0,5.0,27,0.00,,,0.00,415,HR-IXPWINDi_r2_v1.2.,2013-12-24 18:53:00,
2013-12-24 10:58:00,76.3,37.9,30.15,WSW,246,1.0,4.0,25,0.00,,,0.00,396,HR-IXPWINDi_r2_v1.2.,2013-12-24 18:58:00,
2013-12-24 11:03:00,76.4,39.0,30.15,SSE,165,2.0,3.0,26,0.00,,,0.00,381,HR-IXPWINDi_r2_v1.2.,2013-12-24 19:03:00,
2013-12-24 11:08:00,77.4,37.8,30.15,East,93,6.0,8.0,24,0.00,,,0.00,376,HR-IXPWINDi_r2_v1.2.,2013-12-24 19:08:00,
2013-12-24 11:13:00,76.7,38.2,30.15,ESE,107,2.0,8.0,25,0.00,,,0.00,381,HR-IXPWINDi_r2_v1.2.,2013-12-24 19:13:00,
2013-12-24 11:18:00,77.8,38.1,30.14,ESE,105,2.0,8.0,24,0.00,,,0.00,399,HR-IXPWINDi_r2_v1.2.,2013-12-24 19:18:00,
2013-12-24 11:23:00,77.3,37.7,30.14,NNE,15,2.0,8.0,24,0.00,,,0.00,418,HR-IXPWINDi_r2_v1.2.,2013-12-24 19:23:00,
2013-12-24 11:28:00,77.7,39.1,30.14,East,96,1.0,8.0,25,0.00,,,0.00,422,HR-IXPWINDi_r2_v1.2.,2013-12-24 19:28:00,
2013-12-24 11:34:00,78.2,37.4,30.14,ENE,78,1.0,9.0,23,0.00,,,0.00,420,HR-IXPWINDi_r2_v1.2.,2013-12-24 19:34:00,
2013-12-24 11:39:00,78.5,37.6,30.13,East,86,3.0,9.0,23,0.00,,,0.00,411,HR-IXPWINDi_r2_v1.2.,2013-12-24 19:39:00,
2013-12-24 11:44:00,78.4,38.6,30.13,South,179,0.0,7.0,24,0.00,,,0.00,403,HR-IXPWINDi_r2_v1.2.,2013-12-24 19:44:00,
2013-12-24 11:49:00,79.2,38.2,30.13,South,172,0.0,6.0,23,0.00,,,0.00,396,HR-IXPWINDi_r2_v1.2.,2013-12-24 19:49:00,
2013-12-24 11:54:00,79.2,38.2,30.12,South,173,4.0,6.0,23,0.00,,,0.00,399,HR-IXPWINDi_r2_v1.2.,2013-12-24 19:54:00,
2013-12-24 12:00:00,80.1,40.0,30.12,ESE,115,1.0,5.0,24,0.00,,,0.00,418,HR-IXPWINDi_r2_v1.2.,2013-12-24 20:00:00,
2013-12-24 12:05:00,80.2,39.0,30.12,South,177,4.0,8.0,23,0.00,,,0.00,446,HR-IXPWINDi_r2_v1.2.,2013-12-24 20:05:00,
2013-12-24 12:10:00,80.2,37.9,30.11,SSE,166,0.0,8.0,22,0.00,,,0.00,469,HR-IXPWINDi_r2_v1.2.,2013-12-24 20:10:00,
2013-12-24 12:15:00,80.9,37.3,30.10,South,171,0.0,5.0,21,0.00,,,0.00,473,HR-IXPWINDi_r2_v1.2.,2013-12-24 20:15:00,
2013-12-24 12:20:00,80.5,37.0,30.10,East,98,6.0,7.0,21,0.00,,,0.00,425,HR-IXPWINDi_r2_v1.2.,2013-12-24 20:20:00,
2013-12-24 12:25:00,81.2,37.5,30.10,South,173,2.0,7.0,21,0.00,,,0.00,332,HR-IXPWINDi_r2_v1.2.,2013-12-24 20:25:00,
2013-12-24 12:31:00,81.3,38.8,30.09,NE,49,2.0,5.0,22,0.00,,,0.00,306,HR-IXPWINDi_r2_v1.2.,2013-12-24 20:31:00,
2013-12-24 12:36:00,81.7,39.1,30.09,South,180,2.0,5.0,22,0.00,,,0.00,348,HR-IXPWINDi_r2_v1.2.,2013-12-24 20:36:00,
2013-12-24 12:41:00,82.5,36.1,30.08,NNE,19,0.0,4.0,19,0.00,,,0.00,387,HR-IXPWINDi_r2_v1.2.,2013-12-24 20:41:00,
2013-12-24 12:46:00,81.8,36.8,30.08,South,170,2.0,4.0,20,0.00,,,0.00,436,HR-IXPWINDi_r2_v1.2.,2013-12-24 20:46:00,
2013-12-24 12:52:00,81.9,38.1,30.07,North,5,1.0,4.0,21,0.00,,,0.00,471,HR-IXPWINDi_r2_v1.2.,2013-12-24 20:52:00,
2013-12-24 12:57:00,82.7,37.5,30.07,SSW,200,1.0,6.0,20,0.00,,,0.00,483,HR-IXPWINDi_r2_v1.2.,2013-12-24 20:57:00,
2013-12-24 13:03:00,82.9,37.7,30.07,SSE,162,3.0,8.0,20,0.00,,,0.00,478,HR-IXPWINDi_r2_v1.2.,2013-12-24 21:03:00,
2013-12-24 13:08:00,82.9,36.4,30.07,South,170,1.0,8.0,19,0.00,,,0.00,473,HR-IXPWINDi_r2_v1.2.,2013-12-24 21:08:00,
2013-12-24 13:13:00,82.8,36.3,30.06,ESE,123,2.0,12.0,19,0.00,,,0.00,468,HR-IXPWINDi_r2_v1.2.,2013-12-24 21:13:00,
2013-12-24 13:18:00,82.1,37.1,30.06,South,175,1.0,12.0,20,0.00,,,0.00,462,HR-IXPWINDi_r2_v1.2.,2013-12-24 21:18:00,
2013-12-24 13:24:00,82.0,37.0,30.06,SSE,161,1.0,11.0,20,0.00,,,0.00,455,HR-IXPWINDi_r2_v1.2.,2013-12-24 21:24:00,
2013-12-24 13:29:00,82.6,36.2,30.06,East,83,5.0,8.0,19,0.00,,,0.00,446,HR-IXPWINDi_r2_v1.2.,2013-12-24 21:29:00,
2013-12-24 13:34:00,82.2,37.1,30.06,ESE,108,1.0,8.0,20,0.00,,,0.00,439,HR-IXPWINDi_r2_v1.2.,2013-12-24 21:34:00,
2013-12-24 13:39:00,82.3,37.2,30.06,SSE,167,4.0,9.0,20,0.00,,,0.00,429,HR-IXPWINDi_r2_v1.2.,2013-12-24 21:39:00,
2013-12-24 13:45:00,82.0,37.0,30.06,East,90,5.0,10.0,20,0.00,,,0.00,420,HR-IXPWINDi_r2_v1.2.,2013-12-24 21:45:00,
2013-12-24 13:50:00,81.8,36.8,30.06,ESE,113,4.0,10.0,20,0.00,,,0.00,406,HR-IXPWINDi_r2_v1.2.,2013-12-24 21:50:00,
2013-12-24 13:55:00,81.7,35.4,30.06,South,187,2.0,10.0,19,0.00,,,0.00,371,HR-IXPWINDi_r2_v1.2.,2013-12-24 21:55:00,
2013-12-24 14:00:00,82.8,38.9,30.06,South,182,2.0,8.0,21,0.00,,,0.00,336,HR-IXPWINDi_r2_v1.2.,2013-12-24 22:00:00,
2013-12-24 14:05:00,82.9,37.7,30.06,East,98,0.0,5.0,20,0.00,,,0.00,323,HR-IXPWINDi_r2_v1.2.,2013-12-24 22:05:00,
2013-12-24 14:11:00,83.0,36.5,30.06,ESE,117,1.0,5.0,19,0.00,,,0.00,338,HR-IXPWINDi_r2_v1.2.,2013-12-24 22:11:00,
2013-12-24 14:16:00,83.2,36.7,30.06,South,188,1.0,6.0,19,0.00,,,0.00,355,HR-IXPWINDi_r2_v1.2.,2013-12-24 22:16:00,
2013-12-24 14:21:00,83.1,36.6,30.06,ESE,121,2.0,6.0,19,0.00,,,0.00,353,HR-IXPWINDi_r2_v1.2.,2013-12-24 22:21:00,
2013-12-24 14:26:00,82.9,35.0,30.06,ESE,104,3.0,6.0,18,0.00,,,0.00,343,HR-IXPWINDi_r2_v1.2.,2013-12-24 22:26:00,
2013-12-24 14:31:00,82.9,36.4,30.06,SSW,196,2.0,6.0,19,0.00,,,0.00,332,HR-IXPWINDi_r2_v1.2.,2013-12-24 22:31:00,
2013-12-24 14:36:00,82.6,36.2,30.06,South,172,4.0,6.0,19,0.00,,,0.00,320,HR-IXPWINDi_r2_v1.2.,2013-12-24 22:36:00,
2013-12-24 14:41:00,82.6,37.5,30.06,South,175,5.0,7.0,20,0.00,,,0.00,308,HR-IXPWINDi_r2_v1.2.,2013-12-24 22:41:00,
2013-12-24 14:47:00,82.0,35.7,30.06,SE,144,3.0,8.0,19,0.00,,,0.00,297,HR-IXPWINDi_r2_v1.2.,2013-12-24 22:47:00,
2013-12-24 14:52:00,80.9,36.1,30.06,South,173,0.0,8.0,20,0.00,,,0.00,285,HR-IXPWINDi_r2_v1.2.,2013-12-24 22:52:00,
2013-12-24 14:57:00,79.8,33.9,30.06,South,175,0.0,7.0,19,0.00,,,0.00,67,HR-IXPWINDi_r2_v1.2.,2013-12-24 22:57:00,
2013-12-24 15:02:00,79.1,34.6,30.06,South,171,2.0,6.0,20,0.00,,,0.00,33,HR-IXPWINDi_r2_v1.2.,2013-12-24 23:02:00,
2013-12-24 15:07:00,78.5,34.1,30.06,East,101,1.0,8.0,20,0.00,,,0.00,33,HR-IXPWINDi_r2_v1.2.,2013-12-24 23:07:00,
2013-12-24 15:12:00,78.2,33.8,30.06,SSE,159,2.0,8.0,20,0.00,,,0.00,32,HR-IXPWINDi_r2_v1.2.,2013-12-24 23:12:00,
2013-12-24 15:17:00,77.9,33.6,30.06,East,100,2.0,9.0,20,0.00,,,0.00,30,HR-IXPWINDi_r2_v1.2.,2013-12-24 23:17:00,
2013-12-24 15:22:00,77.5,33.3,30.06,SE,130,2.0,9.0,20,0.00,,,0.00,26,HR-IXPWINDi_r2_v1.2.,2013-12-24 23:22:00,
2013-12-24 15:27:00,77.2,33.0,30.06,SSE,155,2.0,9.0,20,0.00,,,0.00,28,HR-IXPWINDi_r2_v1.2.,2013-12-24 23:27:00,
2013-12-24 15:33:00,77.0,35.2,30.06,SSE,161,1.0,8.0,22,0.00,,,0.00,30,HR-IXPWINDi_r2_v1.2.,2013-12-24 23:33:00,
2013-12-24 15:38:00,76.3,34.7,30.06,South,178,4.0,8.0,22,0.00,,,0.00,25,HR-IXPWINDi_r2_v1.2.,2013-12-24 23:38:00,
2013-12-24 15:43:00,76.1,34.5,30.06,SSE,148,0.0,6.0,22,0.00,,,0.00,21,HR-IXPWINDi_r2_v1.2.,2013-12-24 23:43:00,
2013-12-24 15:48:00,75.7,34.2,30.06,SSE,150,1.0,6.0,22,0.00,,,0.00,18,HR-IXPWINDi_r2_v1.2.,2013-12-24 23:48:00,
2013-12-24 15:53:00,75.1,34.8,30.06,South,183,0.0,3.0,23,0.00,,,0.00,16,HR-IXPWINDi_r2_v1.2.,2013-12-24 23:53:00,
2013-12-24 15:58:00,74.6,34.3,30.06,South,171,1.0,3.0,23,0.00,,,0.00,16,HR-IXPWINDi_r2_v1.2.,2013-12-24 23:58:00,
2013-12-24 16:03:00,74.3,35.2,30.06,ESE,107,0.0,4.0,24,0.00,,,0.00,16,HR-IXPWINDi_r2_v1.2.,2013-12-25 00:03:00,
2013-12-24 16:09:00,74.0,33.8,30.06,SSE,158,1.0,4.0,23,0.00,,,0.00,14,HR-IXPWINDi_r2_v1.2.,2013-12-25 00:09:00,
2013-12-24 16:14:00,73.5,34.5,30.07,South,173,1.0,5.0,24,0.00,,,0.00,14,HR-IXPWINDi_r2_v1.2.,2013-12-25 00:14:00,
2013-12-24 16:19:00,73.2,34.2,30.07,SSE,159,3.0,5.0,24,0.00,,,0.00,12,HR-IXPWINDi_r2_v1.2.,2013-12-25 00:19:00,
2013-12-24 16:24:00,72.9,34.0,30.07,SSW,198,0.0,4.0,24,0.00,,,0.00,11,HR-IXPWINDi_r2_v1.2.,2013-12-25 00:24:00,
2013-12-24 16:30:00,72.4,33.6,30.07,SSW,192,2.0,6.0,24,0.00,,,0.00,11,HR-IXPWINDi_r2_v1.2.,2013-12-25 00:30:00,
2013-12-24 16:35:00,72.3,34.5,30.07,South,191,1.0,6.0,25,0.00,,,0.00,11,HR-IXPWINDi_r2_v1.2.,2013-12-25 00:35:00,
2013-12-24 16:40:00,70.9,34.3,30.07,South,191,2.0,5.0,26,0.00,,,0.00,9,HR-IXPWINDi_r2_v1.2.,2013-12-25 00:40:00,
2013-12-24 16:45:00,70.5,34.9,30.08,South,188,1.0,3.0,27,0.00,,,0.00,7,HR-IXPWINDi_r2_v1.2.,2013-12-25 00:45:00,
2013-12-24 16:50:00,70.7,36.0,30.08,South,181,2.0,5.0,28,0.00,,,0.00,5,HR-IXPWINDi_r2_v1.2.,2013-12-25 00:50:00,
2013-12-24 16:56:00,69.0,36.3,30.08,South,181,0.0,5.0,30,0.00,,,0.00,0,HR-IXPWINDi_r2_v1.2.,2013-12-25 00:56:00,
2013-12-24 17:01:00,67.6,38.2,30.08,SW,223,0.0,4.0,34,0.00,,,0.00,0,HR-IXPWINDi_r2_v1.2.,2013-12-25 01:01:00,
2013-12-24 17:06:00,65.7,38.0,30.08,WSW,251,2.0,4.0,36,0.00,,,0.00,0,HR-IXPWINDi_r2_v1.2.,2013-12-25 01:06:00,
2013-12-24 17:11:00,64.3,37.4,30.08,WSW,253,1.0,2.0,37,0.00,,,0.00,0,HR-IXPWINDi_r2_v1.2.,2013-12-25 01:11:00,
2013-12-24 17:16:00,63.1,38.4,30.09,WSW,253,0.0,2.0,40,0.00,,,0.00,0,HR-IXPWINDi_r2_v1.2.,2013-12-25 01:16:00,
2013-12-24 17:22:00,61.4,38.1,30.09,WSW,253,1.0,2.0,42,0.00,,,0.00,0,HR-IXPWINDi_r2_v1.2.,2013-12-25 01:22:00,
2013-12-24 17:27:00,60.3,38.3,30.09,WSW,253,1.0,2.0,44,0.00,,,0.00,0,HR-IXPWINDi_r2_v1.2.,2013-12-25 01:27:00,
2013-12-24 17:32:00,59.7,37.1,30.09,WSW,253,0.0,2.0,43,0.00,,,0.00,0,HR-IXPWINDi_r2_v1.2.,2013-12-25 01:32:00,
2013-12-24 17:37:00,60.6,36.7,30.09,WSW,254,2.0,3.0,41,0.00,,,0.00,0,HR-IXPWINDi_r2_v1.2.,2013-12-25 01:37:00,
2013-12-24 17:42:00,60.3,36.5,30.09,WSW,258,1.0,3.0,41,0.00,,,0.00,0,HR-IXPWINDi_r2_v1.2.,2013-12-25 01:42:00,
2013-12-24 17:48:00,60.5,36.6,30.09,WNW,296,1.0,4.0,41,0.00,,,0.00,0,HR-IXPWINDi_r2_v1.2.,2013-12-25 01:48:00,
2013-12-24 17:53:00,59.9,36.1,30.09,NW,316,2.0,4.0,41,0.00,,,0.00,0,HR-IXPWINDi_r2_v1.2.,2013-12-25 01:53:00,
2013-12-24 17:58:00,59.6,35.8,30.09,NW,316,1.0,3.0,41,0.00,,,0.00,0,HR-IXPWINDi_r2_v1.2.,2013-12-25 01:58:00,
2013-12-24 18:03:00,59.3,35.6,30.10,NW,316,0.0,3.0,41,0.00,,,0.00,0,HR-IXPWINDi_r2_v1.2.,2013-12-25 02:03:00,
2013-12-24 18:09:00,58.3,35.9,30.10,NW,316,0.0,2.0,43,0.00,,,0.00,0,HR-IXPWINDi_r2_v1.2.,2013-12-25 02:09:00,
2013-12-24 18:14:00,57.3,36.7,30.10,NW,316,0.0,1.0,46,0.00,,,0.00,0,HR-IXPWINDi_r2_v1.2.,2013-12-25 02:14:00,
2013-12-24 18:19:00,57.3,35.0,30.10,NW,317,1.0,4.0,43,0.00,,,0.00,0,HR-IXPWINDi_r2_v1.2.,2013-12-25 02:19:00,
2013-12-24 18:24:00,57.0,35.3,30.10,NW,317,0.0,4.0,44,0.00,,,0.00,0,HR-IXPWINDi_r2_v1.2.,2013-12-25 02:24:00,
2013-12-24 18:29:00,56.6,35.5,30.11,NW,317,0.0,2.0,45,0.00,,,0.00,0,HR-IXPWINDi_r2_v1.2.,2013-12-25 02:29:00,
2013-12-24 18:34:00,56.0,34.9,30.11,NW,317,2.0,3.0,45,0.00,,,0.00,0,HR-IXPWINDi_r2_v1.2.,2013-12-25 02:34:00,
2013-12-24 18:39:00,56.4,35.3,30.11,NW,317,0.0,3.0,45,0.00,,,0.00,0,HR-IXPWINDi_r2_v1.2.,2013-12-25 02:39:00,
2013-12-24 18:45:00,55.2,35.8,30.11,NW,317,1.0,3.0,48,0.00,,,0.00,0,HR-IXPWINDi_r2_v1.2.,2013-12-25 02:45:00,
2013-12-24 18:50:00,55.1,35.7,30.11,NW,317,0.0,2.0,48,0.00,,,0.00,0,HR-IXPWINDi_r2_v1.2.,2013-12-25 02:50:00,
2013-12-24 18:55:00,54.1,35.8,30.11,NW,317,1.0,2.0,50,0.00,,,0.00,0,HR-IXPWINDi_r2_v1.2.,2013-12-25 02:55:00,
2013-12-24 19:00:00,54.1,34.8,30.12,WNW,300,3.0,5.0,48,0.00,,,0.00,0,HR-IXPWINDi_r2_v1.2.,2013-12-25 03:00:00,
2013-12-24 19:05:00,55.4,34.9,30.12,NW,312,2.0,5.0,46,0.00,,,0.00,0,HR-IXPWINDi_r2_v1.2.,2013-12-25 03:05:00,
2013-12-24 19:11:00,56.3,35.2,30.12,NW,306,0.0,3.0,45,0.00,,,0.00,0,HR-IXPWINDi_r2_v1.2.,2013-12-25 03:11:00,
2013-12-24 19:16:00,56.5,34.2,30.12,NW,311,1.0,3.0,43,0.00,,,0.00,0,HR-IXPWINDi_r2_v1.2.,2013-12-25 03:16:00,
2013-12-24 19:21:00,57.0,34.7,30.12,NW,311,4.0,5.0,43,0.00,,,0.00,0,HR-IXPWINDi_r2_v1.2.,2013-12-25 03:21:00,
2013-12-24 19:26:00,57.9,34.3,30.12,NW,309,3.0,6.0,41,0.00,,,0.00,0,HR-IXPWINDi_r2_v1.2.,2013-12-25 03:26:00,
2013-12-24 19:32:00,58.6,34.3,30.12,NW,323,2.0,6.0,40,0.00,,,0.00,0,HR-IXPWINDi_r2_v1.2.,2013-12-25 03:32:00,
2013-12-24 19:37:00,57.2,34.3,30.12,NW,310,5.0,6.0,42,0.00,,,0.00,0,HR-IXPWINDi_r2_v1.2.,2013-12-25 03:37:00,
2013-12-24 19:42:00,57.8,33.6,30.12,NNW,329,2.0,6.0,40,0.00,,,0.00,0,HR-IXPWINDi_r2_v1.2.,2013-12-25 03:42:00,
2013-12-24 19:47:00,57.5,34.0,30.12,NW,319,1.0,6.0,41,0.00,,,0.00,0,HR-IXPWINDi_r2_v1.2.,2013-12-25 03:47:00,
2013-12-24 19:52:00,56.8,34.5,30.12,NW,317,2.0,5.0,43,0.00,,,0.00,0,HR-IXPWINDi_r2_v1.2.,2013-12-25 03:52:00,
2013-12-24 19:58:00,56.2,34.5,30.12,North,355,2.0,4.0,44,0.00,,,0.00,0,HR-IXPWINDi_r2_v1.2.,2013-12-25 03:58:00,
2013-12-24 20:03:00,55.4,34.4,30.12,NNW,331,1.0,4.0,45,0.00,,,0.00,0,HR-IXPWINDi_r2_v1.2.,2013-12-25 04:03:00,
2013-12-24 20:08:00,55.3,34.3,30.12,NW,306,2.0,4.0,45,0.00,,,0.00,0,HR-IXPWINDi_r2_v1.2.,2013-12-25 04:08:00,
2013-12-24 20:13:00,55.4,34.4,30.12,NNW,342,3.0,4.0,45,0.00,,,0.00,0,HR-IXPWINDi_r2_v1.2.,2013-12-25 04:13:00,
2013-12-24 20:18:00,55.6,34.0,30.11,WNW,286,5.0,7.0,44,0.00,,,0.00,0,HR-IXPWINDi_r2_v1.2.,2013-12-25 04:18:00,
2013-12-24 20:23:00,56.4,34.2,30.11,NW,311,5.0,7.0,43,0.00,,,0.00,0,HR-IXPWINDi_r2_v1.2.,2013-12-25 04:23:00,
2013-12-24 20:29:00,57.0,33.5,30.11,NW,320,2.0,7.0,41,0.00,,,0.00,0,HR-IXPWINDi_r2_v1.2.,2013-12-25 04:29:00,
2013-12-24 20:34:00,57.2,33.7,30.12,NW,308,3.0,8.0,41,0.00,,,0.00,0,HR-IXPWINDi_r2_v1.2.,2013-12-25 04:34:00,
2013-12-24 20:39:00,56.9,34.0,30.12,NW,324,2.0,8.0,42,0.00,,,0.00,0,HR-IXPWINDi_r2_v1.2.,2013-12-25 04:39:00,
2013-12-24 20:44:00,56.2,34.0,30.12,WNW,286,4.0,5.0,43,0.00,,,0.00,0,HR-IXPWINDi_r2_v1.2.,2013-12-25 04:44:00,
2013-12-24 20:49:00,56.3,33.5,30.11,NW,309,2.0,11.0,42,0.00,,,0.00,0,HR-IXPWINDi_r2_v1.2.,2013-12-25 04:49:00,
2013-12-24 20:54:00,57.0,33.5,30.12,NW,315,1.0,11.0,41,0.00,,,0.00,0,HR-IXPWINDi_r2_v1.2.,2013-12-25 04:54:00,
2013-12-24 20:59:00,57.1,33.6,30.12,WNW,294,4.0,7.0,41,0.00,,,0.00,0,HR-IXPWINDi_r2_v1.2.,2013-12-25 04:59:00,
2013-12-24 21:01:00,56.9,32.8,30.12,WNW,292,4.0,7.0,40,0.00,,,0.00,0,HR-IXPWINDi_r2_v1.2.,2013-12-25 05:01:00,
2013-12-24 21:06:00,56.9,33.4,30.12,North,5,2.0,6.0,41,0.00,,,0.00,0,HR-IXPWINDi_r2_v1.2.,2013-12-25 05:06:00,
2013-12-24 21:11:00,56.9,32.8,30.12,NW,306,3.0,6.0,40,0.00,,,0.00,0,HR-IXPWINDi_r2_v1.2.,2013-12-25 05:11:00,
2013-12-24 21:16:00,56.8,33.9,30.12,WNW,302,0.0,6.0,42,0.00,,,0.00,0,HR-IXPWINDi_r2_v1.2.,2013-12-25 05:16:00,
2013-12-24 21:21:00,55.4,34.4,30.12,NW,320,4.0,4.0,45,0.00,,,0.00,0,HR-IXPWINDi_r2_v1.2.,2013-12-25 05:21:00,
2013-12-24 21:26:00,55.0,33.5,30.12,West,265,3.0,6.0,44,0.00,,,0.00,0,HR-IXPWINDi_r2_v1.2.,2013-12-25 05:26:00,
2013-12-24 21:32:00,54.7,33.7,30.11,NNE,17,0.0,6.0,45,0.00,,,0.00,0,HR-IXPWINDi_r2_v1.2.,2013-12-25 05:32:00,
2013-12-24 21:37:00,54.2,33.8,30.11,NNE,14,4.0,5.0,46,0.00,,,0.00,0,HR-IXPWINDi_r2_v1.2.,2013-12-25 05:37:00,
2013-12-24 21:42:00,54.7,32.0,30.11,WNW,289,4.0,6.0,42,0.00,,,0.00,0,HR-IXPWINDi_r2_v1.2.,2013-12-25 05:42:00,
2013-12-24 21:47:00,54.8,32.7,30.12,NW,316,2.0,6.0,43,0.00,,,0.00,0,HR-IXPWINDi_r2_v1.2.,2013-12-25 05:47:00,
2013-12-24 21:52:00,55.4,32.7,30.12,North,351,0.0,5.0,42,0.00,,,0.00,0,HR-IXPWINDi_r2_v1.2.,2013-12-25 05:52:00,
2013-12-24 21:57:00,54.8,33.3,30.12,NNW,336,5.0,5.0,44,0.00,,,0.00,0,HR-IXPWINDi_r2_v1.2.,2013-12-25 05:57:00,
2013-12-24 22:02:00,55.8,33.6,30.12,NNW,333,3.0,8.0,43,0.00,,,0.00,0,HR-IXPWINDi_r2_v1.2.,2013-12-25 06:02:00,
2013-12-24 22:07:00,56.8,32.7,30.12,NNW,329,2.0,8.0,40,0.00,,,0.00,0,HR-IXPWINDi_r2_v1.2.,2013-12-25 06:07:00,
2013-12-24 22:12:00,57.7,32.2,30.12,NNE,19,1.0,7.0,38,0.00,,,0.00,0,HR-IXPWINDi_r2_v1.2.,2013-12-25 06:12:00,
2013-12-24 22:17:00,57.8,31.7,30.12,West,281,0.0,7.0,37,0.00,,,0.00,0,HR-IXPWINDi_r2_v1.2.,2013-12-25 06:17:00,
2013-12-24 22:23:00,57.4,32.0,30.13,WSW,251,0.0,5.0,38,0.00,,,0.00,0,HR-IXPWINDi_r2_v1.2.,2013-12-25 06:23:00,
2013-12-24 22:28:00,58.6,33.0,30.13,SSW,213,1.0,5.0,38,0.00,,,0.00,0,HR-IXPWINDi_r2_v1.2.,2013-12-25 06:28:00,
2013-12-24 22:33:00,60.2,32.4,30.13,South,174,1.0,6.0,35,0.00,,,0.00,0,HR-IXPWINDi_r2_v1.2.,2013-12-25 06:33:00,
2013-12-24 22:38:00,65.4,32.3,30.13,SSE,161,3.0,6.0,29,0.00,,,0.00,0,HR-IXPWINDi_r2_v1.2.,2013-12-25 06:38:00,
2013-12-24 22:43:00,68.1,32.8,30.13,South,185,3.0,6.0,27,0.00,,,0.00,0,HR-IXPWINDi_r2_v1.2.,2013-12-25 06:43:00,
2013-12-24 22:48:00,69.0,32.7,30.13,SSE,153,2.0,8.0,26,0.00,,,0.00,0,HR-IXPWINDi_r2_v1.2.,2013-12-25 06:48:00,
2013-12-24 22:54:00,69.4,32.0,30.13,SSW,202,2.0,8.0,25,0.00,,,0.00,0,HR-IXPWINDi_r2_v1.2.,2013-12-25 06:54:00,
2013-12-24 22:59:00,70.1,32.6,30.14,NE,47,4.0,8.0,25,0.00,,,0.00,0,HR-IXPWINDi_r2_v1.2.,2013-12-25 06:59:00,
2013-12-24 23:04:00,70.2,31.7,30.13,ESE,116,4.0,8.0,24,0.00,,,0.00,0,HR-IXPWINDi_r2_v1.2.,2013-12-25 07:04:00,
2013-12-24 23:09:00,70.2,31.7,30.14,SSE,151,2.0,8.0,24,0.00,,,0.00,0,HR-IXPWINDi_r2_v1.2.,2013-12-25 07:09:00,
2013-12-24 23:14:00,68.2,32.9,30.14,NNW,348,1.0,8.0,27,0.00,,,0.00,0,HR-IXPWINDi_r2_v1.2.,2013-12-25 07:14:00,
2013-12-24 23:20:00,64.8,32.6,30.14,WNW,293,0.0,5.0,30,0.00,,,0.00,0,HR-IXPWINDi_r2_v1.2.,2013-12-25 07:20:00,
2013-12-24 23:25:00,61.0,33.1,30.14,NNW,344,3.0,5.0,35,0.00,,,0.00,0,HR-IXPWINDi_r2_v1.2.,2013-12-25 07:25:00,
2013-12-24 23:30:00,59.4,33.8,30.14,WNW,288,2.0,5.0,38,0.00,,,0.00,0,HR-IXPWINDi_r2_v1.2.,2013-12-25 07:30:00,
2013-12-24 23:35:00,58.0,33.2,30.14,WSW,248,2.0,5.0,39,0.00,,,0.00,0,HR-IXPWINDi_r2_v1.2.,2013-12-25 07:35:00,
2013-12-24 23:40:00,58.3,32.8,30.14,SW,227,0.0,5.0,38,0.00,,,0.00,0,HR-IXPWINDi_r2_v1.2.,2013-12-25 07:40:00,
2013-12-24 23:45:00,58.2,32.0,30.14,WSW,246,0.0,5.0,37,0.00,,,0.00,0,HR-IXPWINDi_r2_v1.2.,2013-12-25 07:45:00,
2013-12-24 23:51:00,59.8,32.1,30.14,South,188,3.0,5.0,35,0.00,,,0.00,0,HR-IXPWINDi_r2_v1.2.,2013-12-25 07:51:00,
2013-12-24 23:56:00,63.6,33.2,30.14,South,180,6.0,7.0,32,0.00,,,0.00,0,HR-IXPWINDi_r2_v1.2.,2013-12-25 07:56:00,